createdAt,value
2017-10-24T00:00:01.708Z,1.70
2017-10-24T00:02:29.247Z,1.60
2017-10-24T00:04:56.818Z,1.85
2017-10-24T00:07:24.575Z,1.40
2017-10-24T00:09:52.128Z,1.80
2017-10-24T00:12:19.691Z,1.48
2017-10-24T00:14:47.245Z,1.70
2017-10-24T00:17:14.749Z,1.75
2017-10-24T00:19:42.269Z,1.87
2017-10-24T00:22:09.819Z,1.27
2017-10-24T00:24:37.380Z,2.00
2017-10-24T00:27:04.940Z,1.35
2017-10-24T00:29:32.683Z,1.50
2017-10-24T00:32:00.202Z,1.60
2017-10-24T00:34:27.763Z,1.40
2017-10-24T00:36:55.396Z,1.50
2017-10-24T00:39:22.928Z,1.95
2017-10-24T00:41:50.444Z,1.65
2017-10-24T00:44:18.171Z,1.95
2017-10-24T00:46:45.718Z,1.60
2017-10-24T00:49:13.277Z,1.33
2017-10-24T00:51:41.179Z,1.48
2017-10-24T00:54:08.702Z,1.67
2017-10-24T00:56:36.215Z,2.03
2017-10-24T00:59:03.903Z,1.58
2017-10-24T01:01:31.424Z,1.80
2017-10-24T01:03:58.943Z,1.70
2017-10-24T01:06:26.705Z,2.28
2017-10-24T01:08:54.223Z,1.98
2017-10-24T01:11:21.762Z,1.40
2017-10-24T01:13:49.482Z,1.80
2017-10-24T01:16:16.991Z,2.08
2017-10-24T01:18:44.507Z,2.00
2017-10-24T01:21:12.263Z,2.03
2017-10-24T01:23:39.822Z,1.85
2017-10-24T01:26:07.381Z,1.80
2017-10-24T01:28:35.145Z,2.62
2017-10-24T01:31:01.985Z,3.10
2017-10-24T01:33:29.579Z,2.40
2017-10-24T01:35:57.312Z,2.70
2017-10-24T01:38:24.869Z,2.42
2017-10-24T01:40:52.411Z,2.92
2017-10-24T01:43:19.978Z,2.85
2017-10-24T01:45:47.582Z,2.47
2017-10-24T01:48:15.108Z,3.15
2017-10-24T01:50:42.869Z,3.00
2017-10-24T01:53:10.428Z,3.00
2017-10-24T01:55:37.987Z,3.22
2017-10-24T01:58:05.751Z,4.45
2017-10-24T02:00:33.311Z,4.07
2017-10-24T02:03:00.865Z,3.90
2017-10-24T02:05:28.414Z,3.60
2017-10-24T02:07:55.937Z,3.15
2017-10-24T02:10:23.455Z,3.70
2017-10-24T02:12:51.310Z,3.60
2017-10-24T02:15:18.831Z,4.03
2017-10-24T02:17:46.432Z,3.87
2017-10-24T02:20:13.975Z,3.53
2017-10-24T02:22:41.492Z,3.75
2017-10-24T02:25:09.016Z,4.53
2017-10-24T02:27:36.766Z,4.07
2017-10-24T02:30:04.327Z,4.15
2017-10-24T02:32:31.847Z,3.30
2017-10-24T02:34:59.631Z,3.33
2017-10-24T02:37:27.148Z,3.87
2017-10-24T02:39:54.703Z,4.50
2017-10-24T02:42:22.347Z,4.90
2017-10-24T02:44:49.884Z,4.32
2017-10-24T02:47:17.402Z,4.15
2017-10-24T02:49:45.188Z,4.60
2017-10-24T02:52:12.718Z,4.43
2017-10-24T02:54:40.244Z,4.05
2017-10-24T02:57:07.992Z,4.55
2017-10-24T02:59:35.563Z,4.55
2017-10-24T03:02:03.106Z,4.57
2017-10-24T03:04:30.662Z,4.65
2017-10-24T03:06:58.184Z,5.10
2017-10-24T03:09:25.708Z,5.05
2017-10-24T03:11:53.444Z,4.97
2017-10-24T03:14:21.007Z,5.30
2017-10-24T03:16:48.514Z,6.40
2017-10-24T03:19:16.121Z,4.80
2017-10-24T03:21:43.682Z,5.57
2017-10-24T03:24:11.198Z,5.03
2017-10-24T03:26:39.091Z,5.20
2017-10-24T03:29:06.667Z,5.80
2017-10-24T03:31:34.224Z,4.95
2017-10-24T03:34:02.004Z,5.85
2017-10-24T03:36:29.527Z,5.50
2017-10-24T03:38:57.049Z,5.05
2017-10-24T03:41:24.972Z,5.80
2017-10-24T03:43:52.534Z,5.72
2017-10-24T03:46:20.093Z,4.82
2017-10-24T03:48:47.659Z,5.20
2017-10-24T03:51:15.209Z,4.93
2017-10-24T03:53:42.722Z,5.50
2017-10-24T03:56:10.519Z,5.05
2017-10-24T03:58:38.096Z,5.25
2017-10-24T04:01:05.675Z,5.78
2017-10-24T04:03:33.702Z,4.82
2017-10-24T04:06:01.232Z,4.78
2017-10-24T04:08:28.750Z,4.45
2017-10-24T04:10:56.688Z,6.35
2017-10-24T04:13:24.207Z,4.90
2017-10-24T04:15:51.744Z,4.30
2017-10-24T04:18:19.472Z,4.15
2017-10-24T04:20:47.000Z,4.97
2017-10-24T04:23:14.541Z,4.90
2017-10-24T04:25:42.346Z,4.43
2017-10-24T04:28:09.854Z,4.45
2017-10-24T04:30:37.382Z,4.18
2017-10-24T04:33:05.127Z,4.70
2017-10-24T04:35:32.841Z,4.70
2017-10-24T04:38:00.794Z,4.95
2017-10-24T04:40:29.160Z,4.10
2017-10-24T04:42:56.687Z,5.37
2017-10-24T04:45:24.219Z,4.60
2017-10-24T04:47:51.779Z,3.75
2017-10-24T04:50:19.294Z,3.95
2017-10-24T04:52:47.667Z,4.10
2017-10-24T04:55:15.224Z,4.65
2017-10-24T04:57:43.403Z,3.60
2017-10-24T05:00:10.959Z,3.42
2017-10-24T05:02:38.740Z,3.40
2017-10-24T05:05:06.282Z,4.05
2017-10-24T05:07:34.251Z,3.35
2017-10-24T05:10:02.017Z,3.30
2017-10-24T05:12:29.542Z,3.15
2017-10-24T05:14:57.067Z,2.67
2017-10-24T05:17:24.998Z,2.87
2017-10-24T05:19:52.557Z,3.17
2017-10-24T05:22:20.131Z,3.22
2017-10-24T05:24:47.781Z,3.00
2017-10-24T05:27:15.358Z,3.10
2017-10-24T05:29:42.896Z,3.40
2017-10-24T05:32:10.839Z,3.55
2017-10-24T05:34:38.357Z,3.42
2017-10-24T05:37:05.880Z,3.03
2017-10-24T05:39:33.448Z,3.22
2017-10-24T05:42:00.999Z,3.35
2017-10-24T05:44:28.576Z,3.10
2017-10-24T05:46:56.142Z,2.97
2017-10-24T05:49:23.676Z,3.25
2017-10-24T05:51:51.254Z,3.35
2017-10-24T05:54:18.979Z,4.07
2017-10-24T05:56:46.495Z,2.92
2017-10-24T05:59:14.021Z,3.00
2017-10-24T06:01:41.578Z,2.83
2017-10-24T06:04:09.097Z,3.00
2017-10-24T06:06:36.616Z,2.37
2017-10-24T06:09:04.461Z,2.92
2017-10-24T06:11:32.016Z,2.62
2017-10-24T06:13:59.540Z,2.70
2017-10-24T06:16:27.148Z,2.65
2017-10-24T06:18:54.693Z,2.90
2017-10-24T06:21:22.252Z,3.17
2017-10-24T06:23:50.016Z,3.42
2017-10-24T06:26:17.576Z,2.83
2017-10-24T06:28:45.097Z,2.80
2017-10-24T06:31:12.983Z,2.15
2017-10-24T06:33:40.494Z,3.15
2017-10-24T06:36:08.018Z,2.90
2017-10-24T06:38:35.867Z,2.12
2017-10-24T06:41:03.442Z,3.25
2017-10-24T06:43:31.018Z,2.80
2017-10-24T06:45:59.072Z,3.10
2017-10-24T06:48:26.630Z,3.20
2017-10-24T06:50:54.199Z,3.20
2017-10-24T06:53:21.863Z,2.75
2017-10-24T06:55:49.410Z,2.80
2017-10-24T06:58:16.970Z,2.50
2017-10-24T07:00:44.815Z,3.08
2017-10-24T07:03:12.336Z,3.03
2017-10-24T07:05:39.864Z,3.40
2017-10-24T07:08:07.595Z,3.33
2017-10-24T07:10:35.175Z,3.72
2017-10-24T07:13:02.706Z,4.05
2017-10-24T07:15:30.496Z,4.03
2017-10-24T07:17:58.015Z,3.45
2017-10-24T07:20:25.563Z,3.75
2017-10-24T07:22:53.494Z,3.55
2017-10-24T07:25:21.019Z,3.47
2017-10-24T07:27:48.548Z,3.40
2017-10-24T07:30:16.412Z,3.60
2017-10-24T07:32:43.937Z,3.92
2017-10-24T07:35:11.487Z,3.60
2017-10-24T07:37:39.063Z,3.65
2017-10-24T07:40:06.578Z,3.65
2017-10-24T07:42:34.112Z,3.40
2017-10-24T07:45:01.922Z,3.83
2017-10-24T07:47:29.447Z,3.55
2017-10-24T07:49:56.968Z,3.65
2017-10-24T07:52:24.547Z,3.78
2017-10-24T07:54:52.107Z,3.87
2017-10-24T07:57:19.639Z,3.65
2017-10-24T07:59:47.203Z,3.00
2017-10-24T08:02:14.728Z,3.10
2017-10-24T08:04:42.315Z,2.58
2017-10-24T08:07:10.061Z,3.05
2017-10-24T08:09:37.614Z,3.37
2017-10-24T08:12:05.175Z,3.40
2017-10-24T08:14:32.919Z,3.60
2017-10-24T08:17:00.428Z,3.30
2017-10-24T08:19:27.943Z,2.77
2017-10-24T08:21:55.513Z,3.50
2017-10-24T08:24:23.584Z,3.10
2017-10-24T08:26:51.145Z,3.70
2017-10-24T08:29:18.716Z,2.57
2017-10-24T08:31:46.235Z,3.30
2017-10-24T08:34:13.754Z,2.90
2017-10-24T08:36:41.603Z,3.00
2017-10-24T08:39:09.124Z,3.57
2017-10-24T08:41:36.639Z,2.97
2017-10-24T08:44:04.466Z,3.53
2017-10-24T08:46:32.026Z,3.43
2017-10-24T08:48:59.585Z,3.23
2017-10-24T08:51:27.759Z,3.70
2017-10-24T08:53:55.317Z,3.87
2017-10-24T08:56:23.286Z,3.13
2017-10-24T08:58:51.048Z,4.00
2017-10-24T09:01:30.694Z,3.83
2017-10-24T09:03:58.451Z,3.23
2017-10-24T09:06:35.845Z,2.93
2017-10-24T09:12:20.358Z,2.63
2017-10-24T09:14:48.072Z,2.27
2017-10-24T09:17:37.272Z,3.10
2017-10-24T09:20:05.920Z,2.63
2017-10-24T09:22:33.431Z,3.50
2017-10-24T09:25:00.950Z,2.73
2017-10-24T09:27:29.636Z,3.43
2017-10-24T09:29:57.157Z,3.90
2017-10-24T09:32:28.200Z,3.80
2017-10-24T09:34:55.743Z,3.40
2017-10-24T09:37:23.275Z,3.33
2017-10-24T09:39:51.007Z,4.90
2017-10-24T09:42:18.515Z,3.23
2017-10-24T09:44:46.035Z,3.40
2017-10-24T09:47:13.583Z,3.63
2017-10-24T09:49:41.099Z,4.07
2017-10-24T09:52:08.611Z,3.93
2017-10-24T09:54:43.128Z,3.53
2017-10-24T09:57:10.644Z,3.17
2017-10-24T09:59:38.167Z,4.03
2017-10-24T10:02:05.735Z,3.83
2017-10-24T10:04:33.262Z,3.93
2017-10-24T10:07:10.698Z,4.10
2017-10-24T10:09:38.220Z,4.33
2017-10-24T10:12:09.668Z,3.53
2017-10-24T10:14:37.424Z,3.90
2017-10-24T10:17:04.987Z,3.47
2017-10-24T10:19:32.503Z,3.63
2017-10-24T10:22:00.291Z,4.07
2017-10-24T10:24:43.658Z,4.53
2017-10-24T10:27:11.237Z,4.00
2017-10-24T10:29:38.760Z,4.03
2017-10-24T10:32:06.316Z,4.40
2017-10-24T10:34:34.078Z,3.83
2017-10-24T10:37:02.557Z,3.20
2017-10-24T10:39:30.124Z,3.37
2017-10-24T10:41:57.860Z,3.50
2017-10-24T10:44:25.378Z,3.60
2017-10-24T10:46:52.899Z,2.70
2017-10-24T10:49:20.454Z,3.83
2017-10-24T10:51:48.014Z,3.27
2017-10-24T10:54:15.575Z,3.10
2017-10-24T10:56:43.320Z,3.00
2017-10-24T10:59:10.832Z,3.20
2017-10-24T11:01:38.354Z,2.77
2017-10-24T11:04:06.220Z,3.07
2017-10-24T11:06:33.731Z,2.27
2017-10-24T11:09:01.256Z,2.17
2017-10-24T11:11:28.990Z,3.50
2017-10-24T11:13:56.561Z,2.83
2017-10-24T11:16:24.117Z,2.47
2017-10-24T11:18:51.780Z,3.17
2017-10-24T11:21:19.339Z,2.60
2017-10-24T11:23:46.863Z,3.33
2017-10-24T11:26:14.542Z,2.67
2017-10-24T11:28:42.065Z,2.70
2017-10-24T11:31:09.583Z,3.00
2017-10-24T11:33:37.502Z,2.60
2017-10-24T11:36:05.204Z,2.67
2017-10-24T11:38:32.795Z,2.67
2017-10-24T11:41:00.361Z,2.80
2017-10-24T11:43:27.893Z,2.60
2017-10-24T11:45:55.437Z,2.10
2017-10-24T11:48:23.205Z,2.50
2017-10-24T11:50:50.763Z,2.50
2017-10-24T11:53:18.324Z,2.30
2017-10-24T11:55:46.291Z,2.27
2017-10-24T11:58:13.870Z,2.13
2017-10-24T12:00:41.412Z,2.20
2017-10-24T12:03:09.173Z,2.40
2017-10-24T12:05:37.655Z,2.40
2017-10-24T12:08:05.214Z,2.53
2017-10-24T12:10:33.180Z,2.33
2017-10-24T12:13:00.692Z,2.10
2017-10-24T12:15:28.210Z,2.30
2017-10-24T12:17:56.151Z,1.47
2017-10-24T12:20:23.676Z,2.57
2017-10-24T12:22:51.196Z,1.60
2017-10-24T12:25:18.928Z,2.03
2017-10-24T12:27:46.459Z,1.80
2017-10-24T12:30:13.979Z,1.33
2017-10-24T12:32:41.643Z,1.57
2017-10-24T12:35:09.171Z,2.20
2017-10-24T12:37:36.716Z,2.53
2017-10-24T12:40:04.489Z,1.70
2017-10-24T12:42:46.930Z,2.43
2017-10-24T12:45:16.228Z,1.50
2017-10-24T12:47:43.777Z,0.90
2017-10-24T12:50:16.040Z,0.77
2017-10-24T12:52:43.665Z,0.60
2017-10-24T12:55:11.183Z,0.60
2017-10-24T12:57:54.582Z,0.97
2017-10-24T13:00:22.110Z,0.50
2017-10-24T13:02:50.030Z,1.20
2017-10-24T13:05:18.276Z,0.70
2017-10-24T13:07:45.861Z,0.70
2017-10-24T13:10:13.403Z,0.70
2017-10-24T13:12:41.070Z,0.50
2017-10-24T13:15:08.631Z,0.90
2017-10-24T13:17:36.151Z,0.73
2017-10-24T13:20:04.157Z,0.70
2017-10-24T13:22:31.819Z,0.63
2017-10-24T13:24:59.396Z,0.60
2017-10-24T13:27:27.115Z,0.53
2017-10-24T13:29:54.702Z,0.50
2017-10-24T13:32:22.451Z,0.73
2017-10-24T13:34:50.334Z,0.47
2017-10-24T13:37:17.892Z,1.00
2017-10-24T13:39:45.679Z,0.63
2017-10-24T13:42:13.399Z,0.40
2017-10-24T13:44:40.931Z,0.60
2017-10-24T13:47:08.640Z,0.60
2017-10-24T13:49:36.403Z,0.43
2017-10-24T13:52:04.065Z,0.47
2017-10-24T13:54:31.726Z,0.67
2017-10-24T13:56:59.387Z,0.60
2017-10-24T13:59:27.051Z,2.00
2017-10-24T14:01:54.590Z,2.40
2017-10-24T14:04:28.074Z,1.97
2017-10-24T14:07:01.176Z,0.70
2017-10-24T14:09:34.692Z,0.90
2017-10-24T14:12:02.254Z,1.00
2017-10-24T14:14:29.812Z,0.93
2017-10-24T14:16:57.658Z,1.10
2017-10-24T14:19:25.238Z,1.30
2017-10-24T14:21:52.909Z,0.90
2017-10-24T14:24:20.773Z,1.30
2017-10-24T14:26:48.424Z,1.90
2017-10-24T14:29:16.081Z,1.17
2017-10-24T14:31:44.035Z,1.10
2017-10-24T14:34:11.735Z,1.40
2017-10-24T14:36:39.483Z,1.03
2017-10-24T14:39:07.370Z,1.37
2017-10-24T14:41:34.924Z,1.63
2017-10-24T14:44:03.288Z,1.80
2017-10-24T14:46:31.032Z,1.40
2017-10-24T14:48:58.560Z,1.77
2017-10-24T14:51:26.277Z,1.80
2017-10-24T14:53:54.033Z,1.27
2017-10-24T14:56:21.707Z,2.10
2017-10-24T14:58:49.253Z,1.50
2017-10-24T15:01:17.018Z,1.43
2017-10-24T15:03:44.567Z,1.60
2017-10-24T15:06:12.264Z,1.23
2017-10-24T15:08:40.004Z,1.83
2017-10-24T15:11:07.573Z,1.53
2017-10-24T15:13:35.233Z,1.77
2017-10-24T15:16:03.184Z,1.90
2017-10-24T15:18:30.752Z,1.40
2017-10-24T15:20:58.312Z,1.93
2017-10-24T15:23:26.060Z,2.13
2017-10-24T15:25:53.636Z,1.70
2017-10-24T15:28:21.295Z,2.20
2017-10-24T15:30:49.365Z,2.93
2017-10-24T15:33:16.940Z,2.77
2017-10-24T15:35:44.499Z,4.40
2017-10-24T15:38:12.106Z,2.37
2017-10-24T15:40:39.808Z,2.47
2017-10-24T15:43:07.468Z,2.17
2017-10-24T15:45:35.333Z,2.43
2017-10-24T15:48:02.883Z,2.50
2017-10-24T15:50:30.648Z,2.70
2017-10-24T15:52:58.675Z,2.40
2017-10-24T15:55:26.499Z,2.47
2017-10-24T15:57:54.768Z,2.50
2017-10-24T16:00:22.639Z,2.87
2017-10-24T16:02:50.910Z,2.73
2017-10-24T16:05:18.782Z,7.03
2017-10-24T16:07:46.950Z,7.93
2017-10-24T16:10:14.816Z,7.07
2017-10-24T16:12:42.597Z,3.80
2017-10-24T16:15:10.856Z,4.87
2017-10-24T16:17:38.627Z,4.40
2017-10-24T16:20:06.287Z,5.57
2017-10-24T16:22:33.950Z,4.37
2017-10-24T16:25:02.527Z,4.73
2017-10-24T16:27:30.291Z,3.30
2017-10-24T16:29:58.361Z,3.83
2017-10-24T16:32:26.011Z,5.50
2017-10-24T16:34:53.582Z,5.83
2017-10-24T16:37:21.654Z,4.43
2017-10-24T16:39:49.198Z,4.90
2017-10-24T16:42:16.883Z,5.50
2017-10-24T16:44:44.954Z,6.27
2017-10-24T16:47:12.914Z,9.30
2017-10-24T16:49:41.011Z,6.93
2017-10-24T16:52:08.854Z,7.67
2017-10-24T16:54:36.518Z,5.00
2017-10-24T16:57:04.584Z,4.70
2017-10-24T16:59:32.453Z,4.00
2017-10-24T17:02:00.111Z,4.27
2017-10-24T17:04:27.774Z,3.60
2017-10-24T17:06:55.959Z,3.90
2017-10-24T17:09:23.561Z,4.23
2017-10-24T17:11:51.270Z,4.90
2017-10-24T17:14:19.381Z,4.80
2017-10-24T17:16:47.119Z,5.13
2017-10-24T17:19:14.867Z,5.13
2017-10-24T17:21:42.941Z,5.30
2017-10-24T17:24:10.861Z,5.57
2017-10-24T17:26:38.586Z,4.90
2017-10-24T17:29:06.641Z,6.90
2017-10-24T17:31:34.411Z,6.03
2017-10-24T17:34:02.150Z,5.97
2017-10-24T17:36:30.054Z,5.77
2017-10-24T17:38:57.811Z,5.77
2017-10-24T17:41:25.564Z,6.30
2017-10-24T17:43:53.429Z,5.40
2017-10-24T17:46:21.296Z,6.10
2017-10-24T17:48:49.079Z,5.70
2017-10-24T17:51:16.824Z,5.83
2017-10-24T17:53:44.785Z,6.97
2017-10-24T17:56:13.378Z,8.10
2017-10-24T17:58:41.243Z,10.33
2017-10-24T18:01:09.033Z,10.37
2017-10-24T18:03:36.769Z,10.37
2017-10-24T18:06:05.456Z,10.13
2017-10-24T18:08:33.322Z,8.50
2017-10-24T18:11:01.188Z,8.10
2017-10-24T18:13:28.785Z,7.00
2017-10-24T18:15:57.124Z,7.20
2017-10-24T18:18:24.902Z,10.73
2017-10-24T18:20:53.677Z,12.37
2017-10-24T18:23:21.460Z,9.93
2017-10-24T18:25:49.718Z,8.50
2017-10-24T18:28:17.380Z,6.23
2017-10-24T18:30:45.156Z,5.50
2017-10-24T18:33:13.022Z,5.57
2017-10-24T18:35:41.901Z,5.70
2017-10-24T18:38:09.887Z,5.83
2017-10-24T18:40:37.956Z,5.80
2017-10-24T18:43:06.527Z,4.87
2017-10-24T18:45:34.303Z,5.00
2017-10-24T18:48:02.167Z,4.70
2017-10-24T18:50:31.307Z,3.83
2017-10-24T18:52:59.042Z,3.40
2017-10-24T18:55:26.878Z,3.60
2017-10-24T18:57:55.074Z,3.63
2017-10-24T19:00:22.778Z,4.47
2017-10-24T19:02:50.396Z,3.60
2017-10-24T19:05:18.247Z,3.80
2017-10-24T19:07:45.982Z,3.70
2017-10-24T19:10:13.781Z,4.40
2017-10-24T19:12:41.851Z,3.93
2017-10-24T19:15:09.707Z,3.70
2017-10-24T19:17:38.086Z,3.60
2017-10-24T19:20:05.855Z,1.97
2017-10-24T19:22:33.613Z,3.40
2017-10-24T19:25:02.197Z,2.63
2017-10-24T19:27:30.165Z,2.97
2017-10-24T19:29:58.134Z,2.80
2017-10-24T19:32:26.001Z,3.10
2017-10-24T19:34:53.990Z,3.23
2017-10-24T19:37:22.756Z,4.50
2017-10-24T19:39:50.993Z,3.40
2017-10-24T19:42:18.912Z,3.00
2017-10-24T19:44:47.599Z,3.90
2017-10-24T19:47:15.450Z,3.50
2017-10-24T19:49:43.524Z,3.50
2017-10-24T19:52:11.313Z,4.50
2017-10-24T19:54:39.060Z,4.50
2017-10-24T19:57:07.122Z,4.47
2017-10-24T19:59:35.254Z,4.50
2017-10-24T20:02:03.222Z,4.60
2017-10-24T20:04:31.044Z,3.73
2017-10-24T20:06:58.798Z,3.47
2017-10-24T20:09:26.677Z,3.10
2017-10-24T20:11:55.446Z,3.43
2017-10-24T20:14:24.143Z,2.83
2017-10-24T20:16:51.910Z,3.17
2017-10-24T20:19:19.863Z,2.80
2017-10-24T20:21:47.650Z,2.30
2017-10-24T20:24:16.223Z,2.83
2017-10-24T20:26:44.385Z,3.00
2017-10-24T20:29:11.984Z,3.13
2017-10-24T20:31:40.014Z,3.63
2017-10-24T20:34:08.002Z,3.07
2017-10-24T20:36:36.657Z,3.77
2017-10-24T20:39:04.636Z,3.27
2017-10-24T20:41:32.401Z,3.60
2017-10-24T20:44:00.177Z,3.63
2017-10-24T20:46:28.033Z,3.20
2017-10-24T20:48:56.010Z,3.40
2017-10-24T20:51:23.866Z,3.17
2017-10-24T20:53:51.642Z,3.10
2017-10-24T20:56:19.804Z,3.07
2017-10-24T20:58:47.566Z,3.20
2017-10-24T21:01:15.127Z,3.23
2017-10-24T21:03:43.199Z,3.47
2017-10-24T21:06:10.965Z,3.20
2017-10-24T21:08:38.522Z,2.60
2017-10-24T21:11:06.605Z,3.50
2017-10-24T21:13:34.358Z,3.63
2017-10-24T21:16:02.221Z,3.30
2017-10-24T21:18:29.940Z,4.30
2017-10-24T21:20:57.663Z,3.00
2017-10-24T21:23:25.221Z,2.97
2017-10-24T21:25:53.095Z,3.43
2017-10-24T21:28:20.837Z,3.80
2017-10-24T21:30:48.388Z,3.03
2017-10-24T21:33:16.366Z,2.90
2017-10-24T21:35:43.923Z,3.50
2017-10-24T21:38:11.443Z,3.17
2017-10-24T21:40:38.987Z,3.53
2017-10-24T21:43:06.506Z,3.83
2017-10-24T21:45:34.058Z,3.50
2017-10-24T21:48:01.619Z,3.50
2017-10-24T21:50:29.177Z,3.70
2017-10-24T21:52:56.687Z,3.80
2017-10-24T21:55:24.379Z,3.70
2017-10-24T21:57:51.901Z,3.30
2017-10-24T22:03:19.737Z,3.37
2017-10-24T22:05:47.503Z,3.73
2017-10-24T22:08:15.065Z,4.00
2017-10-24T22:10:42.622Z,5.13
2017-10-24T22:13:10.403Z,4.00
2017-10-24T22:15:37.915Z,4.43
2017-10-24T22:18:05.433Z,4.53
2017-10-24T22:20:33.145Z,4.30
2017-10-24T22:23:00.664Z,3.37
2017-10-24T22:25:28.183Z,4.57
2017-10-24T22:27:56.149Z,4.80
2017-10-24T22:30:23.710Z,4.80
2017-10-24T22:32:51.349Z,4.20
2017-10-24T22:35:18.915Z,4.47
2017-10-24T22:37:47.372Z,4.90
2017-10-24T22:40:14.881Z,4.90
2017-10-24T22:42:42.630Z,5.03
2017-10-24T22:45:10.158Z,5.53
2017-10-24T22:47:37.703Z,5.40
2017-10-24T22:50:05.701Z,5.33
2017-10-24T22:52:33.220Z,4.93
2017-10-24T22:55:00.836Z,5.47
2017-10-24T22:57:28.703Z,5.60
2017-10-24T22:59:56.263Z,4.80
2017-10-24T23:02:23.821Z,5.10
2017-10-24T23:04:51.695Z,4.80
2017-10-24T23:07:19.252Z,5.10
2017-10-24T23:09:46.809Z,6.80
2017-10-24T23:12:14.368Z,5.30
2017-10-24T23:14:41.903Z,4.70
2017-10-24T23:17:09.418Z,5.30
2017-10-24T23:19:36.971Z,5.07
2017-10-24T23:22:04.497Z,5.73
2017-10-24T23:24:32.058Z,5.40
2017-10-24T23:26:59.821Z,5.20
2017-10-24T23:29:27.335Z,5.33
2017-10-24T23:31:54.852Z,5.77
2017-10-24T23:34:22.405Z,4.83
2017-10-24T23:36:49.923Z,5.40
2017-10-24T23:39:17.447Z,5.33
2017-10-24T23:41:45.135Z,5.47
2017-10-24T23:44:12.666Z,5.40
2017-10-24T23:46:40.179Z,4.80
2017-10-24T23:49:07.747Z,5.17
2017-10-24T23:51:36.129Z,4.20
2017-10-24T23:54:04.609Z,4.87
2017-10-24T23:56:32.373Z,4.70
2017-10-24T23:58:59.937Z,4.93
